Time;durP1;ratioP1;P1;durP2;ratioP2;P2;SDS_P1;SDS_P2;PMS_P1;PMS_P2;Temp;Humidity;BMP_temperature;BMP_pressure;BME280_temperature;BME280_humidity;BME280_pressure;Samples;Min_cycle;Max_cycle;Signal;HPM_P1;HPM_P2
2023/06/25 00:03:16;;;;;;;15.05;6.38;;;;;;;;;;5097570;28;20043;-74
2023/06/25 00:06:57;;;;;;;15.43;6.25;;;;;;;;;;5106290;28;20579;-74
2023/06/25 00:10:37;;;;;;;14.98;6.72;;;;;;;;;;5102223;28;20403;-72
2023/06/25 00:14:18;;;;;;;17.75;6.28;;;;;;;;;;5105907;28;20089;-72
2023/06/25 00:17:59;;;;;;;16.90;6.70;;;;;;;;;;5100104;28;20091;-73
2023/06/25 00:21:41;;;;;;;20.55;6.82;;;;;;;;;;5103211;28;20476;-70
2023/06/25 00:25:19;;;;;;;15.18;6.15;;;;;;;;;;5105947;28;20563;-73
2023/06/25 00:29:00;;;;;;;23.63;6.70;;;;;;;;;;5096412;28;20046;-72
2023/06/25 00:32:40;;;;;;;17.15;6.43;;;;;;;;;;5099000;28;20050;-72
2023/06/25 00:35:50;;;;;;;15.02;6.40;;;;;;;;;;5104471;28;20975;-73
2023/06/25 00:39:31;;;;;;;17.77;7.30;;;;;;;;;;5103042;28;20048;-77
2023/06/25 00:43:21;;;;;;;15.40;6.43;;;;;;;;;;5098691;28;20080;-72
2023/06/25 00:47:03;;;;;;;15.48;6.38;;;;;;;;;;5105121;28;20076;-73
2023/06/25 00:50:43;;;;;;;24.02;7.15;;;;;;;;;;5101002;28;20123;-72
2023/06/25 00:54:23;;;;;;;16.48;6.20;;;;;;;;;;5104959;28;20052;-72
2023/06/25 00:58:04;;;;;;;25.58;6.80;;;;;;;;;;5106611;28;20514;-71
2023/06/25 01:01:44;;;;;;;22.80;6.65;;;;;;;;;;5105059;27;20035;-72
2023/06/25 01:05:27;;;;;;;15.00;6.78;;;;;;;;;;5104523;27;20072;-71
2023/06/25 01:09:07;;;;;;;17.83;6.32;;;;;;;;;;5106297;27;20046;-70
2023/06/25 01:12:48;;;;;;;28.60;7.30;;;;;;;;;;5111091;27;20043;-72
2023/06/25 01:16:31;;;;;;;14.68;6.30;;;;;;;;;;5102749;27;20054;-70
2023/06/25 01:20:12;;;;;;;19.60;6.82;;;;;;;;;;5090537;28;20127;-71
2023/06/25 01:23:52;;;;;;;16.45;6.85;;;;;;;;;;5089096;28;20547;-70
2023/06/25 01:27:32;;;;;;;19.60;6.18;;;;;;;;;;5088758;27;20310;-71
2023/06/25 01:31:12;;;;;;;22.98;7.80;;;;;;;;;;5093892;28;20131;-70
2023/06/25 01:34:53;;;;;;;23.70;7.53;;;;;;;;;;5092568;27;20065;-72
2023/06/25 01:38:33;;;;;;;17.92;7.03;;;;;;;;;;5102125;28;20051;-71
2023/06/25 01:42:14;;;;;;;21.23;7.40;;;;;;;;;;5097372;28;20048;-72
2023/06/25 01:45:54;;;;;;;16.35;7.60;;;;;;;;;;5104781;27;20470;-71
2023/06/25 01:49:34;;;;;;;20.42;7.68;;;;;;;;;;5088568;28;20047;-70
2023/06/25 01:53:15;;;;;;;16.38;6.88;;;;;;;;;;5101571;28;20502;-72
2023/06/25 01:56:56;;;;;;;16.55;7.57;;;;;;;;;;5103008;27;20061;-72
2023/06/25 02:00:37;;;;;;;21.77;7.13;;;;;;;;;;5089403;28;20464;-71
2023/06/25 02:04:19;;;;;;;18.45;7.03;;;;;;;;;;5099913;28;20475;-72
2023/06/25 02:07:58;;;;;;;21.27;7.10;;;;;;;;;;5084020;27;20123;-73
2023/06/25 02:11:39;;;;;;;13.20;7.00;;;;;;;;;;5082337;27;20483;-70
2023/06/25 02:15:19;;;;;;;18.42;6.72;;;;;;;;;;5103084;28;20066;-73
2023/06/25 02:19:00;;;;;;;17.27;6.40;;;;;;;;;;5091558;27;20059;-73
2023/06/25 02:22:40;;;;;;;14.73;6.70;;;;;;;;;;5109426;27;20091;-72
2023/06/25 02:26:20;;;;;;;12.25;6.82;;;;;;;;;;5107534;27;20912;-71
2023/06/25 02:30:01;;;;;;;15.30;6.85;;;;;;;;;;5108396;27;20067;-71
2023/06/25 02:33:41;;;;;;;18.27;6.60;;;;;;;;;;5096413;27;20149;-72
2023/06/25 02:37:21;;;;;;;16.08;6.78;;;;;;;;;;5103311;27;20495;-71
2023/06/25 02:41:02;;;;;;;13.30;6.43;;;;;;;;;;5107538;27;20034;-72
2023/06/25 02:44:42;;;;;;;13.88;6.25;;;;;;;;;;5107497;27;20410;-72
2023/06/25 02:48:22;;;;;;;13.63;6.28;;;;;;;;;;5111095;27;20136;-71
2023/06/25 02:52:03;;;;;;;14.73;6.13;;;;;;;;;;5101355;28;20043;-70
2023/06/25 02:55:43;;;;;;;15.38;5.68;;;;;;;;;;5104559;27;20059;-71
2023/06/25 02:59:24;;;;;;;16.67;5.97;;;;;;;;;;5093114;27;20052;-71
2023/06/25 03:03:04;;;;;;;9.88;5.82;;;;;;;;;;5095233;27;20054;-70
2023/06/25 03:06:45;;;;;;;10.45;5.90;;;;;;;;;;5086929;27;20406;-72
2023/06/25 03:10:25;;;;;;;22.10;6.65;;;;;;;;;;5096248;27;20058;-70
2023/06/25 03:14:05;;;;;;;15.18;6.18;;;;;;;;;;5109883;27;20045;-72
2023/06/25 03:17:46;;;;;;;13.48;6.40;;;;;;;;;;5098002;27;20058;-71
2023/06/25 03:21:26;;;;;;;15.05;6.55;;;;;;;;;;5098977;27;20032;-72
2023/06/25 03:25:07;;;;;;;16.98;6.53;;;;;;;;;;5096015;28;20051;-71
2023/06/25 03:28:48;;;;;;;14.93;6.60;;;;;;;;;;5103404;27;20233;-69
2023/06/25 03:32:28;;;;;;;12.48;6.07;;;;;;;;;;5087064;28;20039;-71
2023/06/25 03:36:08;;;;;;;14.07;5.93;;;;;;;;;;5101697;27;20054;-73
2023/06/25 03:39:49;;;;;;;12.77;6.47;;;;;;;;;;5091981;28;20036;-72
2023/06/25 03:43:29;;;;;;;14.10;5.88;;;;;;;;;;5087212;28;20131;-71
2023/06/25 03:47:10;;;;;;;13.82;6.55;;;;;;;;;;5096725;28;20044;-71
2023/06/25 03:50:51;;;;;;;10.32;6.22;;;;;;;;;;5106705;28;20119;-73
2023/06/25 03:54:31;;;;;;;13.20;5.90;;;;;;;;;;5095229;28;20395;-71
2023/06/25 03:58:12;;;;;;;13.25;6.20;;;;;;;;;;5103197;28;20047;-72
2023/06/25 04:01:53;;;;;;;10.82;6.03;;;;;;;;;;5100385;28;22262;-71
2023/06/25 04:05:34;;;;;;;10.38;5.95;;;;;;;;;;5094461;28;20394;-72
2023/06/25 04:09:14;;;;;;;14.38;6.25;;;;;;;;;;5092657;28;20039;-70
2023/06/25 04:12:54;;;;;;;12.32;6.00;;;;;;;;;;5105821;28;20445;-72
2023/06/25 04:16:35;;;;;;;13.25;6.40;;;;;;;;;;5090475;28;20056;-73
2023/06/25 04:20:15;;;;;;;15.02;6.40;;;;;;;;;;5096821;28;20189;-70
2023/06/25 04:23:55;;;;;;;10.45;6.30;;;;;;;;;;5103180;28;20056;-71
2023/06/25 04:27:35;;;;;;;14.48;5.95;;;;;;;;;;5105129;28;20142;-71
2023/06/25 04:31:16;;;;;;;13.48;5.72;;;;;;;;;;5103464;28;20167;-70
2023/06/25 04:34:56;;;;;;;15.10;6.25;;;;;;;;;;5103725;28;20058;-73
2023/06/25 04:38:37;;;;;;;13.43;6.07;;;;;;;;;;5104081;28;20054;-70
2023/06/25 04:42:17;;;;;;;9.15;5.68;;;;;;;;;;5103802;28;20149;-71
2023/06/25 04:45:57;;;;;;;10.57;5.70;;;;;;;;;;5105789;28;20096;-72
2023/06/25 04:49:37;;;;;;;9.40;5.60;;;;;;;;;;5100928;28;20563;-72
2023/06/25 04:53:18;;;;;;;9.25;5.80;;;;;;;;;;5107537;27;20043;-72
2023/06/25 04:56:59;;;;;;;13.73;5.78;;;;;;;;;;5108014;28;20074;-72
2023/06/25 05:00:39;;;;;;;10.50;6.22;;;;;;;;;;5105212;28;20032;-70
2023/06/25 05:04:20;;;;;;;9.90;5.38;;;;;;;;;;5099949;27;20075;-71
2023/06/25 05:08:00;;;;;;;12.93;6.00;;;;;;;;;;5107355;28;20380;-72
2023/06/25 05:11:40;;;;;;;12.15;5.60;;;;;;;;;;5095346;28;20109;-70
2023/06/25 05:15:21;;;;;;;12.63;6.25;;;;;;;;;;5109277;28;20378;-73
2023/06/25 05:19:01;;;;;;;9.18;5.22;;;;;;;;;;5102690;28;20131;-73
2023/06/25 05:22:41;;;;;;;12.25;5.72;;;;;;;;;;5101811;28;20050;-74
2023/06/25 05:26:22;;;;;;;13.60;5.30;;;;;;;;;;5105688;28;20498;-72
2023/06/25 05:30:02;;;;;;;14.38;5.50;;;;;;;;;;5104446;28;20046;-75
2023/06/25 05:33:42;;;;;;;12.95;5.82;;;;;;;;;;5096349;28;20542;-72
2023/06/25 05:37:23;;;;;;;11.52;5.57;;;;;;;;;;5104140;28;20050;-72
2023/06/25 05:41:03;;;;;;;15.45;5.80;;;;;;;;;;5103592;28;20100;-70
2023/06/25 05:44:47;;;;;;;8.25;5.63;;;;;;;;;;5105250;28;20054;-71
2023/06/25 05:48:27;;;;;;;15.55;5.90;;;;;;;;;;5094075;28;20050;-70
2023/06/25 05:52:08;;;;;;;14.27;6.25;;;;;;;;;;5100202;28;20134;-72
2023/06/25 05:55:48;;;;;;;12.20;5.95;;;;;;;;;;5101307;28;20047;-72
2023/06/25 05:59:28;;;;;;;15.50;6.43;;;;;;;;;;5105525;28;20043;-72
2023/06/25 06:03:09;;;;;;;17.92;6.03;;;;;;;;;;5103765;28;20129;-71
2023/06/25 06:06:49;;;;;;;10.60;5.70;;;;;;;;;;5101168;28;20051;-71
2023/06/25 06:10:31;;;;;;;12.70;5.60;;;;;;;;;;5100799;28;20051;-74
2023/06/25 06:14:11;;;;;;;9.88;5.40;;;;;;;;;;5105623;28;20058;-71
2023/06/25 06:17:52;;;;;;;9.85;5.05;;;;;;;;;;5105631;28;20047;-71
2023/06/25 06:21:32;;;;;;;8.07;5.00;;;;;;;;;;5099819;28;20035;-72
2023/06/25 06:25:12;;;;;;;7.47;4.88;;;;;;;;;;5098691;27;20058;-73
2023/06/25 06:28:53;;;;;;;9.57;5.13;;;;;;;;;;5104196;27;20082;-72
2023/06/25 06:32:34;;;;;;;8.18;5.10;;;;;;;;;;5105250;28;20067;-72
2023/06/25 06:36:14;;;;;;;9.50;4.97;;;;;;;;;;5100408;28;20289;-72
2023/06/25 06:39:55;;;;;;;9.25;5.38;;;;;;;;;;5099648;28;20411;-72
2023/06/25 06:43:35;;;;;;;7.10;5.07;;;;;;;;;;5104986;28;20051;-73
2023/06/25 06:47:15;;;;;;;9.88;5.32;;;;;;;;;;5108141;28;20039;-73
2023/06/25 06:50:56;;;;;;;12.63;5.50;;;;;;;;;;5097760;28;20044;-73
2023/06/25 06:54:36;;;;;;;8.23;5.53;;;;;;;;;;5098285;28;20075;-76
2023/06/25 06:58:17;;;;;;;6.55;4.85;;;;;;;;;;5105452;28;20067;-73
2023/06/25 07:01:57;;;;;;;12.65;5.70;;;;;;;;;;5105004;28;20118;-79
2023/06/25 07:05:37;;;;;;;10.30;5.32;;;;;;;;;;5104896;28;20043;-72
2023/06/25 07:09:18;;;;;;;11.38;5.78;;;;;;;;;;5103443;27;20075;-72
2023/06/25 07:12:58;;;;;;;9.82;5.55;;;;;;;;;;5100866;28;20059;-73
2023/06/25 07:16:41;;;;;;;10.23;6.00;;;;;;;;;;5102880;28;20116;-74
2023/06/25 07:20:20;;;;;;;10.95;6.18;;;;;;;;;;5101944;28;20120;-72
2023/06/25 07:24:00;;;;;;;13.98;5.78;;;;;;;;;;5096387;28;20074;-72
2023/06/25 07:27:40;;;;;;;9.25;5.82;;;;;;;;;;5096751;28;20048;-72
2023/06/25 07:31:21;;;;;;;10.80;5.97;;;;;;;;;;5096639;28;20051;-73
2023/06/25 07:35:01;;;;;;;14.68;5.68;;;;;;;;;;5101529;28;20047;-73
2023/06/25 07:38:41;;;;;;;8.75;6.07;;;;;;;;;;5091423;28;20071;-73
2023/06/25 07:42:22;;;;;;;12.85;5.78;;;;;;;;;;5098269;28;20100;-76
2023/06/25 07:46:02;;;;;;;9.70;5.25;;;;;;;;;;5098753;28;20055;-74
2023/06/25 07:49:42;;;;;;;12.35;5.53;;;;;;;;;;5102938;28;20091;-74
2023/06/25 07:53:23;;;;;;;11.45;5.88;;;;;;;;;;5105385;28;20517;-72
2023/06/25 07:57:04;;;;;;;10.70;5.22;;;;;;;;;;5099215;28;20141;-72
2023/06/25 08:00:45;;;;;;;7.78;5.35;;;;;;;;;;5105606;28;20036;-74
2023/06/25 08:04:25;;;;;;;8.55;5.57;;;;;;;;;;5104662;28;20127;-72
2023/06/25 08:08:08;;;;;;;7.90;5.38;;;;;;;;;;5100416;28;20507;-75
2023/06/25 08:11:48;;;;;;;11.95;5.35;;;;;;;;;;5103004;28;20066;-75
2023/06/25 08:15:29;;;;;;;7.85;5.53;;;;;;;;;;5096985;28;20415;-74
2023/06/25 08:19:09;;;;;;;8.23;5.30;;;;;;;;;;5100832;28;20044;-74
2023/06/25 08:22:50;;;;;;;8.93;5.63;;;;;;;;;;5102454;28;20122;-72
2023/06/25 08:26:31;;;;;;;8.93;5.40;;;;;;;;;;5112333;27;20051;-76
2023/06/25 08:30:11;;;;;;;13.90;6.45;;;;;;;;;;5105576;28;20339;-73
2023/06/25 08:33:51;;;;;;;12.77;7.20;;;;;;;;;;5109112;28;20429;-72
2023/06/25 08:37:32;;;;;;;12.75;7.50;;;;;;;;;;5107667;28;20104;-74
2023/06/25 08:41:12;;;;;;;13.82;7.65;;;;;;;;;;5107813;28;20064;-72
2023/06/25 08:44:52;;;;;;;18.38;8.50;;;;;;;;;;5101200;28;20044;-74
2023/06/25 08:48:36;;;;;;;16.55;7.57;;;;;;;;;;5105820;28;20036;-74
2023/06/25 08:52:16;;;;;;;14.20;7.38;;;;;;;;;;5098829;28;20648;-72
2023/06/25 08:55:57;;;;;;;10.82;7.00;;;;;;;;;;5104978;28;20039;-73
2023/06/25 08:59:37;;;;;;;13.77;7.15;;;;;;;;;;5090774;28;20095;-73
2023/06/25 09:03:17;;;;;;;15.63;7.30;;;;;;;;;;5103486;28;20036;-73
2023/06/25 09:06:57;;;;;;;12.35;6.97;;;;;;;;;;5108126;28;20047;-73
2023/06/25 09:10:38;;;;;;;12.15;7.22;;;;;;;;;;5107453;28;20130;-73
2023/06/25 09:14:18;;;;;;;19.02;7.22;;;;;;;;;;5101536;28;20043;-73
2023/06/25 09:18:02;;;;;;;19.02;7.43;;;;;;;;;;5108838;28;20058;-73
2023/06/25 09:21:43;;;;;;;11.23;7.00;;;;;;;;;;5113663;27;20132;-73
2023/06/25 09:25:23;;;;;;;12.80;7.15;;;;;;;;;;5108636;28;20495;-74
2023/06/25 09:29:06;;;;;;;13.60;7.00;;;;;;;;;;5108690;28;20750;-73
2023/06/25 09:32:47;;;;;;;9.90;5.88;;;;;;;;;;5100185;28;20043;-75
2023/06/25 09:36:27;;;;;;;13.55;6.10;;;;;;;;;;5100271;28;20047;-72
2023/06/25 09:40:08;;;;;;;9.48;5.72;;;;;;;;;;5095581;28;20044;-74
2023/06/25 09:43:48;;;;;;;10.30;5.40;;;;;;;;;;5103767;28;20051;-73
2023/06/25 09:47:28;;;;;;;11.45;5.53;;;;;;;;;;5103464;28;20097;-72
2023/06/25 09:51:13;;;;;;;10.30;5.85;;;;;;;;;;5095952;27;20040;-75
2023/06/25 09:54:53;;;;;;;8.27;5.22;;;;;;;;;;5091617;27;20121;-73
2023/06/25 09:58:34;;;;;;;9.60;5.50;;;;;;;;;;5103413;28;20050;-74
2023/06/25 10:02:15;;;;;;;7.78;5.40;;;;;;;;;;5109314;28;20059;-72
2023/06/25 10:05:55;;;;;;;8.32;5.70;;;;;;;;;;5099775;28;20128;-75
2023/06/25 10:09:35;;;;;;;10.90;6.40;;;;;;;;;;5102519;28;20414;-72
2023/06/25 10:13:17;;;;;;;9.05;5.40;;;;;;;;;;5105073;28;20134;-73
2023/06/25 10:16:59;;;;;;;7.95;5.10;;;;;;;;;;5102838;28;20512;-71
2023/06/25 10:20:45;;;;;;;10.45;5.25;;;;;;;;;;5086764;27;20077;-74
2023/06/25 10:24:38;;;;;;;9.55;5.20;;;;;;;;;;5106966;27;20069;-74
2023/06/25 10:28:21;;;;;;;9.80;5.07;;;;;;;;;;5102225;28;20062;-73
2023/06/25 10:32:02;;;;;;;7.22;4.72;;;;;;;;;;5093898;28;20252;-73
2023/06/25 10:35:42;;;;;;;9.88;5.32;;;;;;;;;;5100156;28;20720;-75
2023/06/25 10:39:22;;;;;;;8.70;4.97;;;;;;;;;;5096264;28;20039;-75
2023/06/25 10:43:04;;;;;;;10.25;5.18;;;;;;;;;;5096360;28;20040;-74
2023/06/25 10:46:48;;;;;;;10.82;4.97;;;;;;;;;;5097978;28;20073;-74
2023/06/25 10:50:29;;;;;;;9.23;5.38;;;;;;;;;;5097276;28;20065;-75
2023/06/25 10:54:09;;;;;;;9.15;4.53;;;;;;;;;;5102527;28;20047;-73
2023/06/25 10:57:51;;;;;;;9.07;5.75;;;;;;;;;;5104311;28;20096;-73
2023/06/25 11:01:36;;;;;;;12.80;5.32;;;;;;;;;;5102894;28;20044;-75
2023/06/25 11:05:15;;;;;;;8.43;4.93;;;;;;;;;;5098210;27;20096;-76
2023/06/25 11:08:55;;;;;;;9.23;4.82;;;;;;;;;;5094406;28;20557;-74
2023/06/25 11:12:38;;;;;;;9.45;5.13;;;;;;;;;;5107008;28;20056;-76
2023/06/25 11:16:18;;;;;;;9.43;5.57;;;;;;;;;;5098230;28;20048;-74
2023/06/25 11:19:59;;;;;;;12.80;5.18;;;;;;;;;;5097628;28;20444;-74
2023/06/25 11:23:39;;;;;;;11.60;6.25;;;;;;;;;;5105219;27;20059;-73
2023/06/25 11:27:20;;;;;;;10.50;5.90;;;;;;;;;;5101782;28;20048;-74
2023/06/25 11:31:01;;;;;;;7.45;5.63;;;;;;;;;;5101407;28;20464;-75
2023/06/25 11:34:47;;;;;;;10.18;5.60;;;;;;;;;;5106396;28;20039;-74
2023/06/25 11:38:27;;;;;;;9.38;5.85;;;;;;;;;;5093610;28;20483;-75
2023/06/25 11:42:07;;;;;;;8.40;5.57;;;;;;;;;;5100663;28;20047;-74
2023/06/25 11:46:00;;;;;;;9.68;5.10;;;;;;;;;;5101723;28;20055;-74
2023/06/25 11:49:40;;;;;;;9.98;4.72;;;;;;;;;;5100305;28;20062;-75
2023/06/25 11:53:21;;;;;;;10.95;5.72;;;;;;;;;;5102798;28;20279;-75
2023/06/25 11:57:02;;;;;;;11.00;5.50;;;;;;;;;;5107872;28;20083;-73
2023/06/25 12:00:42;;;;;;;9.10;5.57;;;;;;;;;;5091792;28;20172;-74
2023/06/25 12:04:23;;;;;;;11.70;5.25;;;;;;;;;;5098913;28;20066;-73
2023/06/25 12:08:03;;;;;;;11.93;5.75;;;;;;;;;;5103547;28;20071;-74
2023/06/25 12:11:45;;;;;;;9.90;6.10;;;;;;;;;;5097667;28;20061;-74
2023/06/25 12:15:25;;;;;;;8.00;4.93;;;;;;;;;;5102300;28;20078;-74
2023/06/25 12:19:05;;;;;;;9.32;4.85;;;;;;;;;;5100385;28;20060;-75
2023/06/25 12:23:02;;;;;;;10.93;5.35;;;;;;;;;;5102349;28;20114;-74
2023/06/25 12:26:43;;;;;;;12.30;5.38;;;;;;;;;;5103480;28;20122;-75
2023/06/25 12:30:24;;;;;;;10.68;4.57;;;;;;;;;;5103511;28;20310;-73
2023/06/25 12:34:04;;;;;;;7.65;4.05;;;;;;;;;;5103499;28;20130;-74
2023/06/25 12:37:44;;;;;;;8.38;4.50;;;;;;;;;;5096748;28;20034;-74
2023/06/25 12:41:24;;;;;;;8.00;4.97;;;;;;;;;;5097993;28;20047;-73
2023/06/25 12:45:05;;;;;;;8.13;4.95;;;;;;;;;;5097497;28;20043;-73
2023/06/25 12:48:45;;;;;;;9.05;4.60;;;;;;;;;;5095687;28;20491;-73
2023/06/25 12:52:27;;;;;;;8.90;4.90;;;;;;;;;;5101619;28;20043;-72
2023/06/25 12:56:06;;;;;;;7.97;4.80;;;;;;;;;;5102834;28;20507;-73
2023/06/25 12:59:46;;;;;;;7.90;4.90;;;;;;;;;;5105743;28;20036;-75
2023/06/25 13:03:26;;;;;;;8.63;4.55;;;;;;;;;;5107448;28;20046;-73
2023/06/25 13:07:07;;;;;;;10.60;4.97;;;;;;;;;;5108014;28;20057;-74
2023/06/25 13:10:47;;;;;;;9.45;5.05;;;;;;;;;;5104058;28;20044;-74
2023/06/25 13:14:27;;;;;;;9.52;4.38;;;;;;;;;;5106750;28;20127;-75
2023/06/25 13:18:09;;;;;;;7.78;4.35;;;;;;;;;;5104992;28;20055;-71
2023/06/25 13:21:50;;;;;;;8.25;5.93;;;;;;;;;;5107607;28;20048;-73
2023/06/25 13:25:30;;;;;;;8.48;4.82;;;;;;;;;;5107801;27;20054;-73
2023/06/25 13:29:11;;;;;;;8.27;4.60;;;;;;;;;;5107369;28;20048;-74
2023/06/25 13:32:54;;;;;;;7.78;4.47;;;;;;;;;;5097776;28;20032;-73
2023/06/25 13:36:34;;;;;;;7.68;4.60;;;;;;;;;;5096103;27;20055;-72
2023/06/25 13:40:14;;;;;;;9.48;4.65;;;;;;;;;;5101546;28;20441;-73
2023/06/25 13:43:55;;;;;;;10.35;4.65;;;;;;;;;;5108068;28;20046;-72
2023/06/25 13:47:36;;;;;;;6.30;4.53;;;;;;;;;;5105714;28;20440;-73
2023/06/25 13:51:17;;;;;;;8.75;4.45;;;;;;;;;;5102880;28;20067;-71
2023/06/25 13:54:57;;;;;;;9.27;4.80;;;;;;;;;;5102983;28;20040;-72
2023/06/25 13:58:38;;;;;;;7.57;4.78;;;;;;;;;;5107210;28;20190;-73
2023/06/25 14:02:19;;;;;;;6.07;4.45;;;;;;;;;;5109086;28;20054;-78
2023/06/25 14:05:59;;;;;;;8.45;4.20;;;;;;;;;;5098919;28;20047;-71
2023/06/25 14:09:39;;;;;;;6.57;4.55;;;;;;;;;;5106171;28;20039;-76
2023/06/25 14:13:20;;;;;;;7.80;4.10;;;;;;;;;;5106096;28;20350;-71
2023/06/25 14:17:00;;;;;;;5.05;4.00;;;;;;;;;;5104637;28;20468;-72
2023/06/25 14:20:42;;;;;;;7.97;4.30;;;;;;;;;;5110942;28;20039;-71
2023/06/25 14:24:22;;;;;;;6.13;4.05;;;;;;;;;;5105812;28;20089;-73
2023/06/25 14:28:01;;;;;;;7.68;3.83;;;;;;;;;;5109155;28;20077;-72
2023/06/25 14:31:41;;;;;;;5.97;3.80;;;;;;;;;;5105511;28;20471;-72
2023/06/25 14:35:22;;;;;;;7.40;4.00;;;;;;;;;;5098790;28;21211;-73
2023/06/25 14:39:02;;;;;;;6.57;3.72;;;;;;;;;;5104589;28;20035;-72
2023/06/25 14:42:42;;;;;;;8.50;3.78;;;;;;;;;;5100554;28;20055;-71
2023/06/25 14:46:25;;;;;;;6.68;3.35;;;;;;;;;;5099596;28;20248;-71
2023/06/25 14:49:41;;;;;;;6.45;3.67;;;;;;;;;;5084908;27;20056;-68
2023/06/25 14:53:23;;;;;;;7.80;3.83;;;;;;;;;;5093920;27;20074;-68
2023/06/25 14:57:04;;;;;;;6.82;3.80;;;;;;;;;;5087647;27;20058;-69
2023/06/25 15:00:45;;;;;;;5.07;3.63;;;;;;;;;;5093184;27;20098;-69
2023/06/25 15:04:25;;;;;;;6.20;3.55;;;;;;;;;;5094808;27;20056;-68
2023/06/25 15:08:06;;;;;;;5.25;3.42;;;;;;;;;;5096324;27;21275;-71
2023/06/25 15:11:46;;;;;;;7.72;3.75;;;;;;;;;;5094136;27;20047;-70
2023/06/25 15:15:27;;;;;;;7.30;3.83;;;;;;;;;;5091064;27;20058;-71
2023/06/25 15:19:08;;;;;;;7.65;3.55;;;;;;;;;;5099554;28;20054;-69
2023/06/25 15:22:49;;;;;;;5.72;3.60;;;;;;;;;;5091008;28;20133;-69
2023/06/25 15:26:29;;;;;;;7.57;3.40;;;;;;;;;;5091708;28;20047;-69
2023/06/25 15:30:09;;;;;;;6.22;3.70;;;;;;;;;;5095835;28;20094;-69
2023/06/25 15:33:50;;;;;;;7.70;3.70;;;;;;;;;;5089304;28;20047;-69
2023/06/25 15:37:30;;;;;;;5.55;3.47;;;;;;;;;;5090737;28;20308;-68
2023/06/25 15:41:10;;;;;;;8.27;3.63;;;;;;;;;;5090844;28;21268;-69
2023/06/25 15:44:51;;;;;;;4.43;3.45;;;;;;;;;;5091341;28;20046;-73
2023/06/25 15:48:32;;;;;;;5.18;3.50;;;;;;;;;;5093065;28;20195;-72
2023/06/25 15:52:12;;;;;;;9.32;3.60;;;;;;;;;;5092056;28;20564;-73
2023/06/25 15:55:53;;;;;;;5.85;3.47;;;;;;;;;;5091147;28;20035;-71
2023/06/25 15:59:33;;;;;;;6.90;3.53;;;;;;;;;;5096649;28;20055;-66
2023/06/25 16:03:13;;;;;;;8.00;4.00;;;;;;;;;;5089610;28;20055;-69
2023/06/25 16:06:54;;;;;;;5.57;3.33;;;;;;;;;;5091994;28;20473;-69
2023/06/25 16:10:34;;;;;;;6.82;3.50;;;;;;;;;;5094319;28;20073;-75
2023/06/25 16:13:35;;;;;;;5.47;3.30;;;;;;;;;;5088504;28;20128;-73
2023/06/25 16:16:01;;;;;;;8.25;3.55;;;;;;;;;;5087187;28;20446;-72
2023/06/25 16:18:27;;;;;;;8.20;3.55;;;;;;;;;;5091633;28;20052;-74
2023/06/25 16:20:53;;;;;;;6.45;3.70;;;;;;;;;;5093236;28;20105;-72
2023/06/25 16:23:23;;;;;;;10.90;3.85;;;;;;;;;;5085131;28;20048;-67
2023/06/25 16:25:49;;;;;;;9.45;3.63;;;;;;;;;;5097811;28;20107;-66
2023/06/25 16:28:15;;;;;;;5.18;3.22;;;;;;;;;;5101055;28;20486;-74
2023/06/25 16:30:41;;;;;;;9.07;3.50;;;;;;;;;;5096199;27;20072;-71
2023/06/25 16:33:06;;;;;;;9.00;3.42;;;;;;;;;;5098049;28;20051;-69
2023/06/25 16:35:34;;;;;;;7.50;3.50;;;;;;;;;;5112677;27;20062;-70
2023/06/25 16:38:02;;;;;;;8.10;3.70;;;;;;;;;;5108435;28;20078;-73
2023/06/25 16:40:30;;;;;;;9.85;3.85;;;;;;;;;;5097902;27;20129;-71
2023/06/25 16:42:55;;;;;;;8.52;3.50;;;;;;;;;;5106721;28;20157;-72
2023/06/25 16:45:22;;;;;;;9.38;3.65;;;;;;;;;;5106792;27;20044;-72
2023/06/25 16:47:48;;;;;;;6.43;3.65;;;;;;;;;;5105153;28;20656;-71
2023/06/25 16:50:16;;;;;;;7.32;3.95;;;;;;;;;;5105087;27;20059;-71
2023/06/25 16:52:42;;;;;;;7.53;3.90;;;;;;;;;;5085977;28;20291;-72
2023/06/25 16:55:08;;;;;;;9.75;3.58;;;;;;;;;;5082645;28;20040;-73
2023/06/25 16:57:34;;;;;;;10.15;3.40;;;;;;;;;;5084988;28;20051;-76
2023/06/25 17:00:00;;;;;;;12.80;3.90;;;;;;;;;;5106060;27;20047;-73
2023/06/25 17:02:28;;;;;;;7.88;4.03;;;;;;;;;;5099846;27;20115;-73
2023/06/25 17:04:55;;;;;;;8.07;3.63;;;;;;;;;;5092292;28;20131;-70
2023/06/25 17:07:20;;;;;;;8.57;3.95;;;;;;;;;;5091313;27;20213;-74
2023/06/25 17:09:49;;;;;;;11.18;3.90;;;;;;;;;;5096455;27;20044;-77
2023/06/25 17:12:15;;;;;;;6.75;3.70;;;;;;;;;;5089571;28;20081;-71
2023/06/25 17:14:41;;;;;;;7.70;3.63;;;;;;;;;;5096977;27;20043;-74
2023/06/25 17:17:10;;;;;;;7.78;3.65;;;;;;;;;;5104918;27;20043;-76
2023/06/25 17:19:38;;;;;;;9.65;3.88;;;;;;;;;;5099923;27;22151;-78
2023/06/25 17:22:04;;;;;;;11.90;4.00;;;;;;;;;;5106087;27;20090;-74
2023/06/25 17:24:31;;;;;;;10.88;3.78;;;;;;;;;;5104556;27;20067;-73
2023/06/25 17:26:57;;;;;;;10.63;3.75;;;;;;;;;;5105748;28;20453;-74
2023/06/25 17:29:23;;;;;;;9.18;4.13;;;;;;;;;;5105473;27;20244;-73
2023/06/25 17:31:49;;;;;;;10.70;4.07;;;;;;;;;;5108231;27;20036;-73
2023/06/25 17:34:15;;;;;;;9.45;3.60;;;;;;;;;;5101533;28;20043;-73
2023/06/25 17:36:41;;;;;;;7.72;3.67;;;;;;;;;;5096159;28;20047;-75
2023/06/25 17:39:07;;;;;;;9.35;3.75;;;;;;;;;;5091372;28;20048;-74
2023/06/25 17:41:34;;;;;;;12.85;4.10;;;;;;;;;;5077862;28;20044;-73
2023/06/25 17:44:00;;;;;;;10.00;4.00;;;;;;;;;;5108794;27;20040;-74
2023/06/25 17:46:28;;;;;;;12.27;4.40;;;;;;;;;;5102184;27;20400;-75
2023/06/25 17:48:57;;;;;;;9.23;4.35;;;;;;;;;;5101792;28;20052;-73
2023/06/25 17:51:23;;;;;;;12.13;4.65;;;;;;;;;;5073414;28;20051;-73
2023/06/25 17:53:49;;;;;;;13.68;4.05;;;;;;;;;;5096221;27;20094;-74
2023/06/25 17:56:15;;;;;;;10.63;4.18;;;;;;;;;;5107451;27;20063;-79
2023/06/25 17:58:43;;;;;;;8.45;4.60;;;;;;;;;;5088334;28;20163;-80
2023/06/25 18:01:10;;;;;;;8.80;4.05;;;;;;;;;;5106244;27;20039;-79
2023/06/25 18:03:36;;;;;;;9.10;3.90;;;;;;;;;;5098786;27;20072;-79
2023/06/25 18:06:05;;;;;;;10.40;4.85;;;;;;;;;;5097381;28;20054;-80
2023/06/25 18:08:31;;;;;;;10.48;4.30;;;;;;;;;;5102443;27;20123;-77
2023/06/25 18:10:57;;;;;;;10.48;3.88;;;;;;;;;;5083847;27;20096;-78
2023/06/25 18:13:24;;;;;;;9.95;4.28;;;;;;;;;;5073480;28;20049;-71
2023/06/25 18:15:51;;;;;;;8.38;4.03;;;;;;;;;;5086827;27;20052;-71
2023/06/25 18:18:21;;;;;;;7.47;4.40;;;;;;;;;;5086825;28;20044;-70
2023/06/25 18:21:27;;;;;;;7.20;4.18;;;;;;;;;;5066357;28;20175;-70
2023/06/25 18:25:08;;;;;;;9.70;4.47;;;;;;;;;;5079196;28;20496;-74
2023/06/25 18:28:48;;;;;;;7.25;3.80;;;;;;;;;;5074688;28;20055;-70
2023/06/25 18:32:31;;;;;;;7.45;3.67;;;;;;;;;;5076808;28;20078;-72
2023/06/25 18:36:11;;;;;;;10.20;4.18;;;;;;;;;;5083139;28;20078;-72
2023/06/25 18:39:51;;;;;;;11.27;4.28;;;;;;;;;;5072561;28;20506;-71
2023/06/25 18:43:32;;;;;;;10.98;4.57;;;;;;;;;;5072411;28;20093;-71
2023/06/25 18:47:20;;;;;;;9.55;4.18;;;;;;;;;;5061209;28;20048;-70
2023/06/25 18:50:55;;;;;;;11.30;4.93;;;;;;;;;;5064972;28;20129;-68
2023/06/25 18:54:35;;;;;;;7.60;4.85;;;;;;;;;;5071273;28;20051;-70
2023/06/25 18:58:15;;;;;;;9.65;4.13;;;;;;;;;;5069157;28;20187;-74
2023/06/25 19:01:57;;;;;;;8.25;4.05;;;;;;;;;;5071846;28;20242;-70
2023/06/25 19:05:37;;;;;;;9.40;4.35;;;;;;;;;;5077676;28;20441;-71
2023/06/25 19:09:18;;;;;;;11.05;4.75;;;;;;;;;;5077798;28;20058;-67
2023/06/25 19:12:59;;;;;;;9.90;4.25;;;;;;;;;;5056671;28;20059;-69
2023/06/25 19:16:39;;;;;;;12.48;4.70;;;;;;;;;;5066910;28;20075;-68
2023/06/25 19:20:22;;;;;;;13.85;4.63;;;;;;;;;;5069766;28;20696;-66
2023/06/25 19:24:04;;;;;;;10.93;4.47;;;;;;;;;;5071723;28;20124;-69
2023/06/25 19:27:44;;;;;;;13.52;4.72;;;;;;;;;;5080703;28;20044;-68
2023/06/25 19:31:24;;;;;;;12.15;4.70;;;;;;;;;;5072100;28;20044;-67
2023/06/25 19:35:05;;;;;;;10.13;4.60;;;;;;;;;;5073738;28;20063;-68
2023/06/25 19:38:50;;;;;;;10.52;4.80;;;;;;;;;;5078869;28;20440;-73
2023/06/25 19:42:32;;;;;;;11.50;4.90;;;;;;;;;;5077955;28;20052;-68
2023/06/25 19:46:12;;;;;;;15.75;4.70;;;;;;;;;;5075181;28;20515;-70
2023/06/25 19:49:52;;;;;;;9.23;4.50;;;;;;;;;;5069486;28;20044;-69
2023/06/25 19:53:33;;;;;;;10.95;4.60;;;;;;;;;;5084450;28;20981;-68
2023/06/25 19:57:13;;;;;;;9.70;4.72;;;;;;;;;;5076758;28;20047;-70
2023/06/25 20:00:54;;;;;;;15.98;4.72;;;;;;;;;;5079184;28;20082;-71
2023/06/25 20:04:34;;;;;;;10.77;4.75;;;;;;;;;;5077522;28;20044;-71
2023/06/25 20:08:15;;;;;;;11.07;4.95;;;;;;;;;;5078715;28;20114;-72
2023/06/25 20:11:55;;;;;;;9.35;4.85;;;;;;;;;;5080905;28;20040;-69
2023/06/25 20:15:36;;;;;;;11.32;5.13;;;;;;;;;;5094927;28;20132;-67
2023/06/25 20:19:16;;;;;;;15.00;4.72;;;;;;;;;;5101680;27;20048;-66
2023/06/25 20:22:56;;;;;;;11.48;4.90;;;;;;;;;;5102536;28;20051;-66
2023/06/25 20:25:58;;;;;;;13.30;5.10;;;;;;;;;;5096823;27;20050;-63
2023/06/25 20:28:24;;;;;;;12.50;4.72;;;;;;;;;;5096046;28;20048;-64
2023/06/25 20:30:50;;;;;;;13.73;4.85;;;;;;;;;;5087132;28;20044;-65
2023/06/25 20:33:16;;;;;;;11.75;5.03;;;;;;;;;;5099365;28;20043;-65
2023/06/25 20:35:42;;;;;;;10.95;4.50;;;;;;;;;;5102692;28;20064;-65
2023/06/25 20:38:09;;;;;;;12.23;4.70;;;;;;;;;;5092324;28;20051;-65
2023/06/25 20:40:35;;;;;;;10.43;4.30;;;;;;;;;;5098228;27;20488;-62